Time;durP1;ratioP1;P1;durP2;ratioP2;P2;SDS_P1;SDS_P2;PMS_P1;PMS_P2;Temp;Humidity;BMP_temperature;BMP_pressure;BME280_temperature;BME280_humidity;BME280_pressure;Samples;Min_cycle;Max_cycle;Signal;HPM_P1;HPM_P2
2022/04/17 00:00:09;;;;;;;;;;;7.80;49.40;;;;;;4983712;28;19926;-73
2022/04/17 00:02:36;;;;;;;;;;;7.60;49.50;;;;;;4983419;28;19926;-72
2022/04/17 00:05:04;;;;;;;;;;;7.50;50.50;;;;;;4982566;28;19938;-73
2022/04/17 00:07:32;;;;;;;;;;;7.40;51.40;;;;;;4980487;28;19937;-73
2022/04/17 00:09:59;;;;;;;;;;;7.30;51.50;;;;;;4983542;28;20437;-73
2022/04/17 00:12:26;;;;;;;;;;;7.20;52.40;;;;;;4991666;28;19926;-73
2022/04/17 00:14:55;;;;;;;;;;;7.10;53.80;;;;;;4996812;28;19926;-72
2022/04/17 00:17:22;;;;;;;;;;;7.10;55.50;;;;;;4993486;28;19926;-72
2022/04/17 00:19:49;;;;;;;;;;;7.00;57.50;;;;;;4983184;28;19930;-72
2022/04/17 00:22:15;;;;;;;;;;;7.10;57.30;;;;;;5003320;28;19983;-72
2022/04/17 00:24:43;;;;;;;;;;;7.10;57.20;;;;;;4984722;28;20016;-73
2022/04/17 00:27:10;;;;;;;;;;;7.10;57.10;;;;;;4995832;28;20024;-72
2022/04/17 00:29:37;;;;;;;;;;;7.10;56.30;;;;;;4998068;28;19949;-73
2022/04/17 00:32:04;;;;;;;;;;;7.10;56.40;;;;;;5015121;28;20008;-73
2022/04/17 00:34:31;;;;;;;;;;;7.00;56.30;;;;;;4991982;28;20379;-72
2022/04/17 00:36:59;;;;;;;;;;;7.10;55.40;;;;;;4978308;28;19929;-72
2022/04/17 00:39:25;;;;;;;;;;;7.00;56.10;;;;;;4984048;28;19926;-72
2022/04/17 00:41:54;;;;;;;;;;;6.90;56.00;;;;;;4994314;28;19926;-73
2022/04/17 00:44:20;;;;;;;;;;;6.90;55.70;;;;;;4987283;28;20012;-71
2022/04/17 00:46:47;;;;;;;;;;;6.90;55.30;;;;;;5002472;28;19934;-72
2022/04/17 00:49:14;;;;;;;;;;;6.80;55.60;;;;;;4999844;28;19926;-72
2022/04/17 00:51:42;;;;;;;;;;;6.70;59.10;;;;;;4999728;28;19933;-72
2022/04/17 00:54:12;;;;;;;;;;;6.60;63.90;;;;;;4981880;28;19926;-72
2022/04/17 00:56:39;;;;;;;;;;;6.50;66.50;;;;;;4974345;28;20435;-72
2022/04/17 00:59:09;;;;;;;;;;;6.50;64.50;;;;;;4996197;28;20058;-71
2022/04/17 01:01:37;;;;;;;;;;;6.50;60.80;;;;;;5009037;28;20443;-72
2022/04/17 01:04:04;;;;;;;;;;;6.60;59.00;;;;;;5018795;28;19940;-73
2022/04/17 01:06:31;;;;;;;;;;;6.70;57.80;;;;;;4995285;28;19961;-73
2022/04/17 01:08:59;;;;;;;;;;;6.70;57.40;;;;;;4990541;28;19988;-75
2022/04/17 01:11:28;;;;;;;;;;;6.80;55.90;;;;;;4988481;28;19980;-73
2022/04/17 01:13:55;;;;;;;;;;;7.00;54.30;;;;;;4997239;28;19992;-73
2022/04/17 01:16:24;;;;;;;;;;;6.80;56.10;;;;;;4985863;28;19934;-72
2022/04/17 01:18:54;;;;;;;;;;;6.60;57.10;;;;;;5018817;28;19926;-73
2022/04/17 01:21:22;;;;;;;;;;;6.50;57.70;;;;;;4990765;28;19926;-72
2022/04/17 01:29:17;;;;;;;;;;;6.30;59.40;;;;;;4983922;28;19935;-72
2022/04/17 01:31:44;;;;;;;;;;;6.20;60.30;;;;;;4984640;28;19948;-72
2022/04/17 01:34:11;;;;;;;;;;;6.20;61.20;;;;;;4993377;28;19944;-73
2022/04/17 01:36:39;;;;;;;;;;;6.10;61.90;;;;;;4985105;28;19962;-73
2022/04/17 01:39:05;;;;;;;;;;;6.00;62.70;;;;;;4982510;28;19926;-72
2022/04/17 01:41:32;;;;;;;;;;;5.90;63.20;;;;;;4983282;28;19933;-72
2022/04/17 01:43:59;;;;;;;;;;;5.70;63.60;;;;;;4990303;28;19951;-72
2022/04/17 01:46:25;;;;;;;;;;;5.60;65.20;;;;;;4986348;28;19926;-72
2022/04/17 01:48:52;;;;;;;;;;;5.50;66.70;;;;;;4980522;28;19926;-72
2022/04/17 01:51:19;;;;;;;;;;;5.50;68.40;;;;;;4999638;28;20062;-73
2022/04/17 01:53:47;;;;;;;;;;;5.40;71.40;;;;;;4983822;28;19926;-72
2022/04/17 01:56:13;;;;;;;;;;;5.40;73.10;;;;;;4991669;28;20027;-73
2022/04/17 01:58:40;;;;;;;;;;;5.30;75.20;;;;;;4980999;28;19930;-72
2022/04/17 02:01:07;;;;;;;;;;;5.30;76.80;;;;;;4982400;28;19926;-72
2022/04/17 02:03:36;;;;;;;;;;;5.20;80.10;;;;;;4993731;28;19929;-72
2022/04/17 02:06:05;;;;;;;;;;;5.30;81.20;;;;;;4980769;28;19937;-72
2022/04/17 02:08:32;;;;;;;;;;;5.30;82.00;;;;;;4976563;28;19926;-72
2022/04/17 02:11:00;;;;;;;;;;;5.30;82.10;;;;;;4977248;28;19987;-72
2022/04/17 02:13:27;;;;;;;;;;;5.30;83.70;;;;;;4993106;28;19936;-72
2022/04/17 02:15:54;;;;;;;;;;;5.40;84.90;;;;;;5002075;28;20017;-72
2022/04/17 02:18:21;;;;;;;;;;;5.40;85.20;;;;;;4986810;28;19933;-72
2022/04/17 02:20:48;;;;;;;;;;;5.20;85.80;;;;;;4992352;28;19926;-71
2022/04/17 02:23:15;;;;;;;;;;;5.20;87.20;;;;;;4990248;28;19930;-72
2022/04/17 02:25:42;;;;;;;;;;;5.20;89.40;;;;;;4984106;28;20472;-71
2022/04/17 02:28:10;;;;;;;;;;;5.00;90.20;;;;;;4994624;28;20025;-71
2022/04/17 02:30:36;;;;;;;;;;;4.90;91.10;;;;;;5007229;28;19979;-71
2022/04/17 02:33:14;;;;;;;;;;;4.80;91.80;;;;;;4985844;28;19957;-72
2022/04/17 02:35:41;;;;;;;;;;;4.80;92.50;;;;;;4998629;28;19965;-72
2022/04/17 02:38:07;;;;;;;;;;;4.90;91.70;;;;;;4975913;28;19964;-73
2022/04/17 02:40:34;;;;;;;;;;;5.00;90.30;;;;;;4989004;28;20373;-72
2022/04/17 02:43:01;;;;;;;;;;;5.00;89.50;;;;;;4998203;28;20309;-71
2022/04/17 02:45:28;;;;;;;;;;;5.10;89.20;;;;;;4984090;28;19933;-71
2022/04/17 02:47:55;;;;;;;;;;;5.10;89.20;;;;;;4982578;28;20143;-72
2022/04/17 02:50:23;;;;;;;;;;;5.00;90.00;;;;;;4979916;28;19930;-73
2022/04/17 02:52:50;;;;;;;;;;;5.00;89.40;;;;;;4983727;28;19951;-72
2022/04/17 02:55:17;;;;;;;;;;;4.90;89.40;;;;;;4997876;28;20325;-72
2022/04/17 02:57:45;;;;;;;;;;;4.80;89.30;;;;;;4990931;28;19933;-72
2022/04/17 03:00:12;;;;;;;;;;;4.70;90.00;;;;;;5002373;28;19963;-72
2022/04/17 03:05:39;;;;;;;;;;;4.60;90.70;;;;;;4964286;28;19951;-72
2022/04/17 03:08:07;;;;;;;;;;;4.50;90.90;;;;;;4979469;28;19934;-73
2022/04/17 03:10:34;;;;;;;;;;;4.60;91.20;;;;;;4982043;28;19926;-72
2022/04/17 03:13:01;;;;;;;;;;;4.50;91.30;;;;;;5022154;28;19926;-72
2022/04/17 03:15:28;;;;;;;;;;;4.60;91.50;;;;;;5002108;28;20046;-72
2022/04/17 03:17:56;;;;;;;;;;;4.50;91.40;;;;;;4978983;28;19926;-72
2022/04/17 03:20:23;;;;;;;;;;;4.60;91.00;;;;;;5038511;28;19924;-73
2022/04/17 03:22:50;;;;;;;;;;;4.50;90.90;;;;;;4979060;28;19925;-72
2022/04/17 03:25:17;;;;;;;;;;;4.60;90.80;;;;;;4983417;28;19926;-72
2022/04/17 03:27:46;;;;;;;;;;;4.60;90.40;;;;;;4978149;28;19926;-72
2022/04/17 03:30:14;;;;;;;;;;;4.60;90.10;;;;;;4983491;28;20036;-72
2022/04/17 03:32:41;;;;;;;;;;;4.70;88.00;;;;;;4976380;28;20022;-72
2022/04/17 03:35:10;;;;;;;;;;;4.80;87.30;;;;;;4980917;28;20054;-71
2022/04/17 03:37:36;;;;;;;;;;;4.80;86.60;;;;;;4975765;28;20454;-72
2022/04/17 03:40:04;;;;;;;;;;;4.80;85.50;;;;;;4976146;28;19930;-72
2022/04/17 03:42:30;;;;;;;;;;;4.80;85.30;;;;;;4975931;28;19926;-72
2022/04/17 03:44:57;;;;;;;;;;;4.70;85.20;;;;;;4977924;28;20342;-72
2022/04/17 03:47:24;;;;;;;;;;;4.60;85.80;;;;;;4991682;28;20397;-72
2022/04/17 03:49:50;;;;;;;;;;;4.60;86.60;;;;;;4987269;28;19930;-72
2022/04/17 03:52:18;;;;;;;;;;;4.50;86.80;;;;;;4983788;28;19973;-72
2022/04/17 03:54:45;;;;;;;;;;;4.50;87.60;;;;;;4973848;28;19925;-72
2022/04/17 03:57:11;;;;;;;;;;;4.50;88.40;;;;;;4981219;28;19936;-73
2022/04/17 03:59:39;;;;;;;;;;;4.40;88.80;;;;;;4972442;28;20407;-72
2022/04/17 04:02:07;;;;;;;;;;;4.30;89.20;;;;;;5002097;28;20018;-72
2022/04/17 04:04:34;;;;;;;;;;;4.20;90.10;;;;;;4985418;28;19933;-73
2022/04/17 04:07:00;;;;;;;;;;;4.10;90.40;;;;;;5013668;28;19933;-72
2022/04/17 04:09:28;;;;;;;;;;;4.10;90.70;;;;;;4982097;28;19926;-71
2022/04/17 04:11:55;;;;;;;;;;;4.00;91.00;;;;;;4979941;28;19941;-71
2022/04/17 04:14:22;;;;;;;;;;;4.00;90.90;;;;;;4990121;28;20300;-72
2022/04/17 04:16:48;;;;;;;;;;;4.10;89.70;;;;;;4984032;28;19925;-74
2022/04/17 04:19:15;;;;;;;;;;;4.20;87.70;;;;;;4981585;28;19930;-72
2022/04/17 04:21:48;;;;;;;;;;;4.20;86.00;;;;;;4997215;28;20597;-72
2022/04/17 04:24:19;;;;;;;;;;;4.30;84.50;;;;;;4985344;28;20411;-72
2022/04/17 04:28:33;;;;;;;;;;;4.30;83.80;;;;;;4988374;28;19949;-73
2022/04/17 04:29:34;;;;;;;;;;;4.30;83.80;;;;;;4987189;28;19972;-73
2022/04/17 04:32:00;;;;;;;;;;;4.30;82.50;;;;;;4987203;28;19926;-72
2022/04/17 04:34:27;;;;;;;;;;;4.40;81.80;;;;;;5019720;28;19926;-72
2022/04/17 04:36:54;;;;;;;;;;;4.30;81.40;;;;;;4987019;28;20020;-72
2022/04/17 04:39:20;;;;;;;;;;;4.30;81.40;;;;;;4980238;28;20308;-72
2022/04/17 04:41:48;;;;;;;;;;;4.30;81.20;;;;;;4983693;28;20385;-72
2022/04/17 04:44:15;;;;;;;;;;;4.30;81.20;;;;;;4996013;28;19985;-72
2022/04/17 04:46:40;;;;;;;;;;;4.30;81.30;;;;;;4996625;28;20025;-73
2022/04/17 04:51:52;;;;;;;;;;;4.30;80.70;;;;;;4984458;28;19941;-70
2022/04/17 04:54:19;;;;;;;;;;;4.30;80.30;;;;;;4998993;28;20041;-71
2022/04/17 04:56:45;;;;;;;;;;;4.20;80.30;;;;;;4983005;28;19980;-71
2022/04/17 04:59:14;;;;;;;;;;;4.20;80.30;;;;;;4978985;28;19930;-71
2022/04/17 05:01:40;;;;;;;;;;;4.20;80.30;;;;;;4978829;28;19970;-71
2022/04/17 05:04:07;;;;;;;;;;;4.20;80.10;;;;;;4983778;28;19930;-71
2022/04/17 05:06:34;;;;;;;;;;;4.20;79.80;;;;;;4983342;28;19948;-72
2022/04/17 05:09:00;;;;;;;;;;;4.20;79.60;;;;;;4994013;28;19969;-71
2022/04/17 05:11:28;;;;;;;;;;;4.20;79.60;;;;;;4991318;28;19934;-71
2022/04/17 05:13:54;;;;;;;;;;;4.20;79.60;;;;;;4978960;28;20300;-71
2022/04/17 05:16:22;;;;;;;;;;;4.20;79.30;;;;;;5010294;28;20082;-71
2022/04/17 05:18:56;;;;;;;;;;;4.30;78.90;;;;;;4991463;28;19948;-71
2022/04/17 05:21:31;;;;;;;;;;;4.30;78.90;;;;;;4985514;28;20570;-72
2022/04/17 05:23:58;;;;;;;;;;;4.30;78.70;;;;;;4999701;28;19933;-71
2022/04/17 05:26:24;;;;;;;;;;;4.30;78.90;;;;;;5017197;28;19930;-71
2022/04/17 05:28:51;;;;;;;;;;;4.30;78.10;;;;;;4981204;28;19932;-71
2022/04/17 05:31:18;;;;;;;;;;;4.40;77.70;;;;;;4981372;28;20280;-71
2022/04/17 05:33:46;;;;;;;;;;;4.40;77.20;;;;;;4983419;28;19926;-72
2022/04/17 05:36:13;;;;;;;;;;;4.50;76.60;;;;;;4981518;28;19933;-72
2022/04/17 05:38:40;;;;;;;;;;;4.50;75.80;;;;;;4978377;28;20370;-72
2022/04/17 05:41:10;;;;;;;;;;;4.60;75.40;;;;;;5000941;28;19924;-72
2022/04/17 05:43:37;;;;;;;;;;;4.70;74.80;;;;;;4997847;28;19933;-72
2022/04/17 05:46:04;;;;;;;;;;;4.70;74.50;;;;;;4974861;28;20292;-72
2022/04/17 05:48:31;;;;;;;;;;;4.80;74.40;;;;;;5005431;28;20395;-72
2022/04/17 05:50:59;;;;;;;;;;;4.80;74.00;;;;;;4978667;28;19926;-72
2022/04/17 05:53:25;;;;;;;;;;;4.90;73.70;;;;;;4986303;28;20377;-72
2022/04/17 05:55:52;;;;;;;;;;;4.90;73.30;;;;;;4981524;28;19932;-72
2022/04/17 05:58:19;;;;;;;;;;;4.90;73.70;;;;;;4987270;28;19941;-72
2022/04/17 06:00:47;;;;;;;;;;;5.00;73.40;;;;;;4977116;28;20434;-71
2022/04/17 06:03:15;;;;;;;;;;;5.10;72.60;;;;;;4978335;28;20341;-72
2022/04/17 06:05:42;;;;;;;;;;;5.20;72.30;;;;;;4974029;28;19934;-71
2022/04/17 06:08:10;;;;;;;;;;;5.30;71.70;;;;;;4985129;28;20025;-71
2022/04/17 06:10:37;;;;;;;;;;;5.30;71.50;;;;;;4982180;28;19932;-71
2022/04/17 06:13:03;;;;;;;;;;;5.40;70.90;;;;;;5017101;28;19990;-71
2022/04/17 06:15:30;;;;;;;;;;;5.50;69.80;;;;;;4973316;28;19938;-72
2022/04/17 06:17:58;;;;;;;;;;;5.60;70.00;;;;;;4996188;28;19924;-72
2022/04/17 06:20:27;;;;;;;;;;;5.70;70.40;;;;;;4994211;28;19969;-73
2022/04/17 06:22:54;;;;;;;;;;;5.80;68.70;;;;;;5012910;28;19926;-73
2022/04/17 06:25:22;;;;;;;;;;;5.80;69.50;;;;;;4980358;28;19934;-73
2022/04/17 06:27:49;;;;;;;;;;;6.00;68.90;;;;;;4983220;28;19940;-73
2022/04/17 06:30:17;;;;;;;;;;;6.10;66.80;;;;;;4972817;28;19979;-73
2022/04/17 06:32:44;;;;;;;;;;;6.20;65.00;;;;;;4980267;28;19926;-74
2022/04/17 06:35:11;;;;;;;;;;;6.30;63.90;;;;;;4978153;28;20017;-72
2022/04/17 06:37:47;;;;;;;;;;;6.40;64.60;;;;;;4977935;28;19979;-72
2022/04/17 06:40:15;;;;;;;;;;;6.50;63.20;;;;;;4973508;28;19926;-70
2022/04/17 06:42:43;;;;;;;;;;;6.60;61.40;;;;;;4977714;28;19926;-70
2022/04/17 06:45:10;;;;;;;;;;;6.80;61.30;;;;;;4971007;28;20447;-71
2022/04/17 06:47:36;;;;;;;;;;;6.90;59.90;;;;;;4975474;28;19990;-71
2022/04/17 06:50:03;;;;;;;;;;;7.00;57.70;;;;;;4971474;28;19949;-71
2022/04/17 06:52:30;;;;;;;;;;;7.00;57.70;;;;;;4981468;28;19937;-71
2022/04/17 06:54:57;;;;;;;;;;;7.10;57.10;;;;;;4990196;28;19924;-71
2022/04/17 06:57:27;;;;;;;;;;;7.20;56.90;;;;;;4982990;28;19926;-70
2022/04/17 06:59:55;;;;;;;;;;;7.30;56.70;;;;;;4981855;28;19926;-71
2022/04/17 07:02:22;;;;;;;;;;;7.40;55.90;;;;;;4986258;28;20025;-70
2022/04/17 07:04:48;;;;;;;;;;;7.50;55.80;;;;;;4981088;28;20025;-70
2022/04/17 07:07:15;;;;;;;;;;;7.60;54.40;;;;;;4983067;28;19965;-71
2022/04/17 07:09:42;;;;;;;;;;;7.70;53.80;;;;;;4980892;28;19925;-72
2022/04/17 07:12:09;;;;;;;;;;;7.90;54.40;;;;;;4976968;28;19926;-71
2022/04/17 07:14:36;;;;;;;;;;;8.10;53.80;;;;;;4976577;28;20392;-71
2022/04/17 07:17:04;;;;;;;;;;;8.30;51.80;;;;;;4977976;28;19926;-78
2022/04/17 07:19:31;;;;;;;;;;;8.60;50.40;;;;;;4982981;28;19930;-69
2022/04/17 07:21:59;;;;;;;;;;;9.40;48.20;;;;;;4980707;28;19933;-69
2022/04/17 07:24:26;;;;;;;;;;;10.80;43.20;;;;;;4971012;28;19965;-69
2022/04/17 07:26:53;;;;;;;;;;;12.50;38.60;;;;;;4977812;28;19937;-71
2022/04/17 07:29:22;;;;;;;;;;;13.70;32.70;;;;;;4974821;28;19934;-69
2022/04/17 07:31:49;;;;;;;;;;;14.80;29.40;;;;;;4978705;28;20401;-70
2022/04/17 07:34:19;;;;;;;;;;;14.40;27.20;;;;;;4977987;28;20303;-71
2022/04/17 07:36:47;;;;;;;;;;;14.50;26.30;;;;;;4984601;28;20397;-71
2022/04/17 07:39:16;;;;;;;;;;;14.50;23.90;;;;;;4976631;28;19925;-71
2022/04/17 07:41:43;;;;;;;;;;;15.50;22.90;;;;;;4974243;28;19926;-71
2022/04/17 07:44:11;;;;;;;;;;;15.10;20.30;;;;;;4989613;28;19932;-71
2022/04/17 07:46:38;;;;;;;;;;;15.00;20.50;;;;;;4975366;28;19927;-71
2022/04/17 07:49:05;;;;;;;;;;;14.70;20.10;;;;;;4976018;28;19926;-71
2022/04/17 07:51:34;;;;;;;;;;;15.10;19.10;;;;;;4973303;28;19926;-68
2022/04/17 07:54:01;;;;;;;;;;;17.30;16.00;;;;;;4995522;28;20447;-70
2022/04/17 07:56:27;;;;;;;;;;;15.20;17.70;;;;;;4994729;28;19926;-70
2022/04/17 07:58:54;;;;;;;;;;;15.20;18.00;;;;;;5025235;28;19934;-71
2022/04/17 08:01:21;;;;;;;;;;;15.60;18.50;;;;;;4994989;28;19926;-70
2022/04/17 08:03:47;;;;;;;;;;;16.20;15.80;;;;;;4976012;28;19933;-69
2022/04/17 08:06:16;;;;;;;;;;;15.10;18.00;;;;;;4972526;28;19926;-70
2022/04/17 08:08:45;;;;;;;;;;;14.40;18.50;;;;;;4984485;28;19926;-70
2022/04/17 08:11:12;;;;;;;;;;;14.80;18.70;;;;;;4977831;28;19926;-69
2022/04/17 08:13:39;;;;;;;;;;;15.20;18.90;;;;;;4986155;28;19930;-70
2022/04/17 08:16:06;;;;;;;;;;;16.40;17.80;;;;;;4982681;28;19930;-69
2022/04/17 08:18:33;;;;;;;;;;;16.60;15.70;;;;;;4982057;28;19929;-69
2022/04/17 08:21:00;;;;;;;;;;;19.60;13.20;;;;;;4975669;28;19926;-70
2022/04/17 08:23:27;;;;;;;;;;;17.20;12.60;;;;;;4981166;28;20440;-70
2022/04/17 08:25:55;;;;;;;;;;;19.00;12.20;;;;;;4991191;28;19984;-68
2022/04/17 08:28:21;;;;;;;;;;;20.30;9.00;;;;;;4989535;28;19948;-69
2022/04/17 08:30:49;;;;;;;;;;;20.60;8.70;;;;;;4990532;28;20356;-70
2022/04/17 08:33:16;;;;;;;;;;;20.70;6.80;;;;;;4982605;28;20028;-70
2022/04/17 08:35:43;;;;;;;;;;;18.20;9.50;;;;;;4980000;28;19986;-70
2022/04/17 08:38:10;;;;;;;;;;;19.10;9.30;;;;;;4977740;28;19926;-69
2022/04/17 08:40:39;;;;;;;;;;;21.20;7.30;;;;;;4995223;28;20312;-69
2022/04/17 08:43:07;;;;;;;;;;;20.90;7.10;;;;;;4971867;28;19930;-69
2022/04/17 08:45:34;;;;;;;;;;;18.60;9.00;;;;;;4975684;28;20296;-69
2022/04/17 08:48:02;;;;;;;;;;;20.00;7.20;;;;;;4974566;28;19930;-69
2022/04/17 08:50:29;;;;;;;;;;;20.30;5.80;;;;;;4973100;28;19926;-69
2022/04/17 08:52:58;;;;;;;;;;;20.50;5.70;;;;;;4980416;28;20303;-70
2022/04/17 08:55:25;;;;;;;;;;;21.70;5.10;;;;;;4972363;28;19926;-70
2022/04/17 08:57:52;;;;;;;;;;;21.20;4.40;;;;;;4972588;28;20448;-70
2022/04/17 09:00:20;;;;;;;;;;;20.50;5.00;;;;;;4972438;28;19965;-71
2022/04/17 09:02:47;;;;;;;;;;;21.00;5.00;;;;;;4979980;28;20266;-69
2022/04/17 09:05:16;;;;;;;;;;;21.10;4.90;;;;;;4972352;28;19972;-69
2022/04/17 09:07:44;;;;;;;;;;;22.10;2.50;;;;;;4981263;28;19933;-69
2022/04/17 09:10:11;;;;;;;;;;;22.40;1.40;;;;;;4975450;28;20885;-70
2022/04/17 09:12:38;;;;;;;;;;;20.60;4.10;;;;;;4983679;28;19929;-70
2022/04/17 09:15:08;;;;;;;;;;;21.20;3.00;;;;;;4987384;28;19934;-69
2022/04/17 09:17:36;;;;;;;;;;;21.30;2.00;;;;;;4978912;28;19940;-69
2022/04/17 09:20:04;;;;;;;;;;;20.00;3.50;;;;;;4979313;28;19925;-69
2022/04/17 09:22:45;;;;;;;;;;;21.50;2.40;;;;;;4973750;28;20017;-69
2022/04/17 09:25:12;;;;;;;;;;;22.40;1.10;;;;;;4971672;28;20638;-70
2022/04/17 09:27:41;;;;;;;;;;;22.80;1.00;;;;;;4975105;28;20062;-70
2022/04/17 09:30:23;;;;;;;;;;;22.70;1.00;;;;;;4971368;28;19934;-69
2022/04/17 09:32:52;;;;;;;;;;;21.80;1.00;;;;;;4971349;28;19927;-70
2022/04/17 09:35:22;;;;;;;;;;;17.90;4.90;;;;;;4972144;28;19987;-69
2022/04/17 09:37:49;;;;;;;;;;;17.10;8.00;;;;;;4973707;28;20377;-69
2022/04/17 09:40:19;;;;;;;;;;;17.70;6.60;;;;;;4972794;28;19927;-69
2022/04/17 09:42:47;;;;;;;;;;;18.30;5.80;;;;;;4973805;28;19927;-69
2022/04/17 09:45:14;;;;;;;;;;;16.90;6.90;;;;;;4971243;28;20012;-71
2022/04/17 09:47:41;;;;;;;;;;;16.40;7.40;;;;;;4973071;28;20302;-69
2022/04/17 09:50:09;;;;;;;;;;;18.00;5.40;;;;;;4971540;28;19927;-68
2022/04/17 09:52:40;;;;;;;;;;;18.80;4.10;;;;;;4975485;28;20316;-70
2022/04/17 09:55:08;;;;;;;;;;;20.00;2.70;;;;;;4977794;28;19926;-70
2022/04/17 09:57:35;;;;;;;;;;;21.00;1.80;;;;;;4976366;28;19980;-69
2022/04/17 10:00:09;;;;;;;;;;;20.80;1.90;;;;;;4983107;28;20277;-70
2022/04/17 10:02:36;;;;;;;;;;;18.20;3.50;;;;;;4972091;28;19942;-70
2022/04/17 10:05:04;;;;;;;;;;;17.40;4.30;;;;;;4979675;28;19926;-70
2022/04/17 10:07:32;;;;;;;;;;;16.20;6.80;;;;;;4975369;28;19949;-70
2022/04/17 10:09:59;;;;;;;;;;;16.20;6.70;;;;;;4984256;28;19988;-69
2022/04/17 10:12:25;;;;;;;;;;;16.10;6.10;;;;;;4980624;28;19938;-69
2022/04/17 10:14:53;;;;;;;;;;;15.20;7.90;;;;;;4974427;28;20411;-70
2022/04/17 10:17:21;;;;;;;;;;;15.20;8.90;;;;;;4971377;28;19936;-70
2022/04/17 10:19:48;;;;;;;;;;;15.60;8.80;;;;;;4972443;28;19945;-70
2022/04/17 10:22:18;;;;;;;;;;;15.40;9.30;;;;;;4989120;28;20037;-70
2022/04/17 10:24:51;;;;;;;;;;;15.70;8.30;;;;;;4988362;28;19936;-70
2022/04/17 10:27:23;;;;;;;;;;;15.20;9.80;;;;;;4988299;28;19926;-70
2022/04/17 10:29:51;;;;;;;;;;;14.60;10.40;;;;;;4985565;28;19934;-70
2022/04/17 10:32:36;;;;;;;;;;;14.80;9.60;;;;;;4972585;28;20016;-71
2022/04/17 10:35:17;;;;;;;;;;;15.00;9.20;;;;;;4981354;28;20308;-71
2022/04/17 10:38:02;;;;;;;;;;;15.30;9.50;;;;;;4975810;28;20438;-71
2022/04/17 10:40:31;;;;;;;;;;;15.40;9.50;;;;;;4989432;28;19947;-71
2022/04/17 10:42:59;;;;;;;;;;;15.00;10.00;;;;;;4982412;28;19926;-69
2022/04/17 10:45:31;;;;;;;;;;;15.00;11.20;;;;;;4987252;28;19933;-71
2022/04/17 10:48:07;;;;;;;;;;;15.30;8.20;;;;;;4988985;28;19976;-71
2022/04/17 10:50:41;;;;;;;;;;;15.10;8.20;;;;;;4981408;28;19944;-71
2022/04/17 10:53:24;;;;;;;;;;;15.40;9.10;;;;;;4979663;28;19925;-70
2022/04/17 10:56:04;;;;;;;;;;;15.30;8.50;;;;;;4977793;28;19926;-71
2022/04/17 10:58:35;;;;;;;;;;;15.40;7.80;;;;;;4982228;28;19932;-70
2022/04/17 11:01:01;;;;;;;;;;;15.60;8.30;;;;;;4978281;28;19933;-70
2022/04/17 11:03:28;;;;;;;;;;;15.90;9.00;;;;;;4976394;28;19926;-71
2022/04/17 11:06:12;;;;;;;;;;;15.60;9.30;;;;;;4981296;28;20448;-69
2022/04/17 11:08:56;;;;;;;;;;;15.70;9.00;;;;;;4987032;28;19957;-70
2022/04/17 11:11:34;;;;;;;;;;;16.10;8.10;;;;;;4977953;28;20029;-69
2022/04/17 11:14:11;;;;;;;;;;;16.40;7.60;;;;;;4969284;28;19936;-70
2022/04/17 11:16:39;;;;;;;;;;;16.20;8.10;;;;;;4974339;28;19926;-71
2022/04/17 11:19:09;;;;;;;;;;;15.80;9.00;;;;;;4981178;28;19930;-70
2022/04/17 11:21:42;;;;;;;;;;;15.80;7.80;;;;;;4976297;28;20017;-71
2022/04/17 11:24:09;;;;;;;;;;;15.70;7.10;;;;;;4971600;28;19935;-71
2022/04/17 11:26:55;;;;;;;;;;;15.80;8.20;;;;;;4971488;28;20013;-71
2022/04/17 11:29:35;;;;;;;;;;;15.80;8.20;;;;;;4966657;28;19980;-72
2022/04/17 11:32:02;;;;;;;;;;;15.90;9.40;;;;;;4976220;28;20021;-71
2022/04/17 11:34:41;;;;;;;;;;;16.20;7.70;;;;;;4970551;28;19926;-73
2022/04/17 11:37:08;;;;;;;;;;;16.40;7.70;;;;;;4979249;28;20388;-72
2022/04/17 11:39:39;;;;;;;;;;;16.30;7.20;;;;;;4977612;28;19926;-71
2022/04/17 11:42:07;;;;;;;;;;;16.30;5.40;;;;;;4977720;28;20324;-71
2022/04/17 11:44:36;;;;;;;;;;;16.40;7.30;;;;;;4973746;28;19963;-71
2022/04/17 11:47:04;;;;;;;;;;;16.80;7.00;;;;;;4980175;28;19927;-70
2022/04/17 11:49:32;;;;;;;;;;;17.30;6.70;;;;;;4980279;28;19937;-70
2022/04/17 11:52:09;;;;;;;;;;;17.20;6.50;;;;;;4980653;28;19930;-71
2022/04/17 11:54:40;;;;;;;;;;;17.50;5.90;;;;;;4979112;28;19933;-69
2022/04/17 11:57:07;;;;;;;;;;;17.60;5.30;;;;;;4969739;28;20290;-68
2022/04/17 11:59:48;;;;;;;;;;;17.40;5.70;;;;;;4974999;28;19926;-68
2022/04/17 12:02:17;;;;;;;;;;;16.90;6.70;;;;;;4978001;28;19934;-67
2022/04/17 12:04:44;;;;;;;;;;;17.30;6.30;;;;;;4974168;28;19930;-70
2022/04/17 12:07:11;;;;;;;;;;;17.30;6.70;;;;;;4980852;28;19948;-69
2022/04/17 12:09:39;;;;;;;;;;;17.10;8.10;;;;;;4969650;28;19926;-69
2022/04/17 12:12:10;;;;;;;;;;;17.20;6.80;;;;;;4972492;28;20020;-69
2022/04/17 12:14:37;;;;;;;;;;;17.00;6.90;;;;;;4969403;28;19926;-69
2022/04/17 12:17:05;;;;;;;;;;;17.00;7.00;;;;;;4970087;28;19940;-69
2022/04/17 12:19:32;;;;;;;;;;;17.20;6.80;;;;;;4972515;28;19926;-69
2022/04/17 12:21:59;;;;;;;;;;;17.70;5.60;;;;;;4966767;28;20001;-68
2022/04/17 12:24:26;;;;;;;;;;;17.80;5.40;;;;;;4972672;28;20463;-72
2022/04/17 12:26:52;;;;;;;;;;;18.00;6.40;;;;;;4980108;28;20280;-72
2022/04/17 12:29:19;;;;;;;;;;;18.30;6.50;;;;;;4970042;28;19935;-71
2022/04/17 12:31:46;;;;;;;;;;;18.50;6.10;;;;;;4970172;28;19930;-75
2022/04/17 12:34:19;;;;;;;;;;;18.60;5.80;;;;;;4971653;28;19983;-73
2022/04/17 12:36:48;;;;;;;;;;;18.10;5.40;;;;;;4977320;28;19940;-72
2022/04/17 12:39:16;;;;;;;;;;;18.10;5.00;;;;;;4982283;28;19930;-70
2022/04/17 12:41:43;;;;;;;;;;;18.40;4.20;;;;;;4982692;28;19933;-70
2022/04/17 12:44:10;;;;;;;;;;;18.70;3.80;;;;;;4977772;28;19983;-72
2022/04/17 12:46:42;;;;;;;;;;;18.90;2.90;;;;;;4978448;28;20365;-71
2022/04/17 12:49:10;;;;;;;;;;;18.80;2.50;;;;;;4979367;28;20440;-67
2022/04/17 12:51:38;;;;;;;;;;;18.60;3.10;;;;;;4980757;28;20347;-71
2022/04/17 12:54:07;;;;;;;;;;;18.60;1.00;;;;;;4981818;28;20373;-75
2022/04/17 12:56:34;;;;;;;;;;;18.50;2.30;;;;;;4984066;28;19979;-74
2022/04/17 12:59:04;;;;;;;;;;;18.60;3.10;;;;;;4980081;28;19972;-74
2022/04/17 13:01:32;;;;;;;;;;;18.80;2.60;;;;;;4977984;28;19930;-75
2022/04/17 13:04:10;;;;;;;;;;;18.70;2.40;;;;;;4983033;28;19933;-73
2022/04/17 13:06:38;;;;;;;;;;;18.80;1.60;;;;;;4971407;28;20446;-74
2022/04/17 13:09:06;;;;;;;;;;;18.70;3.00;;;;;;4979452;28;20312;-73
2022/04/17 13:11:37;;;;;;;;;;;18.60;4.70;;;;;;4973253;28;19926;-73
2022/04/17 13:14:08;;;;;;;;;;;18.70;2.70;;;;;;4979351;28;19926;-73
2022/04/17 13:16:35;;;;;;;;;;;18.70;3.40;;;;;;4974756;28;20365;-73
2022/04/17 13:19:02;;;;;;;;;;;18.50;3.30;;;;;;4979090;28;19965;-73
2022/04/17 13:21:29;;;;;;;;;;;18.40;3.40;;;;;;4972273;28;20020;-73
2022/04/17 13:23:59;;;;;;;;;;;18.70;4.10;;;;;;4974126;28;19930;-73
2022/04/17 13:26:26;;;;;;;;;;;19.10;2.80;;;;;;4979550;28;20299;-74
2022/04/17 13:28:53;;;;;;;;;;;19.20;2.50;;;;;;4973970;28;20020;-73
2022/04/17 13:31:20;;;;;;;;;;;18.80;3.10;;;;;;4975623;28;20405;-74
2022/04/17 13:33:47;;;;;;;;;;;18.60;3.20;;;;;;4978729;28;20466;-73
2022/04/17 13:36:14;;;;;;;;;;;18.80;4.00;;;;;;4974785;28;19926;-74
2022/04/17 13:38:41;;;;;;;;;;;18.80;3.70;;;;;;4977061;28;19972;-75
2022/04/17 13:41:09;;;;;;;;;;;19.00;3.40;;;;;;4982922;28;20371;-73
2022/04/17 13:43:35;;;;;;;;;;;19.20;3.50;;;;;;4974880;28;19933;-74
2022/04/17 13:46:02;;;;;;;;;;;19.30;2.30;;;;;;4974091;28;20348;-73
2022/04/17 13:48:30;;;;;;;;;;;19.20;1.80;;;;;;4982025;28;19934;-72
2022/04/17 13:50:57;;;;;;;;;;;18.80;1.70;;;;;;4974737;28;19934;-74
2022/04/17 13:53:24;;;;;;;;;;;19.00;3.00;;;;;;4977024;28;20301;-75
2022/04/17 13:55:51;;;;;;;;;;;19.00;3.70;;;;;;4977969;28;19984;-74
2022/04/17 13:58:20;;;;;;;;;;;19.40;3.20;;;;;;4977175;28;19935;-74
2022/04/17 14:00:47;;;;;;;;;;;19.10;2.50;;;;;;4976238;28;19926;-74
2022/04/17 14:03:13;;;;;;;;;;;19.00;3.40;;;;;;4980770;28;19934;-74
2022/04/17 14:05:40;;;;;;;;;;;19.10;3.30;;;;;;4978726;28;19933;-74
2022/04/17 14:08:07;;;;;;;;;;;19.10;4.20;;;;;;4972368;28;19940;-73
2022/04/17 14:10:34;;;;;;;;;;;19.70;2.00;;;;;;4976116;28;19933;-75
2022/04/17 14:13:02;;;;;;;;;;;19.70;2.30;;;;;;4977088;28;20316;-75
2022/04/17 14:15:30;;;;;;;;;;;20.00;3.20;;;;;;4976989;28;20440;-76
2022/04/17 14:17:57;;;;;;;;;;;20.00;2.10;;;;;;4978506;28;19930;-77
2022/04/17 14:20:24;;;;;;;;;;;19.80;2.50;;;;;;4981527;28;19960;-76
2022/04/17 14:22:50;;;;;;;;;;;19.50;1.60;;;;;;4977797;28;20025;-76
2022/04/17 14:25:18;;;;;;;;;;;19.40;3.30;;;;;;4978529;28;20033;-76
2022/04/17 14:27:45;;;;;;;;;;;19.50;3.40;;;;;;4978665;28;19949;-78
2022/04/17 14:30:11;;;;;;;;;;;19.40;2.70;;;;;;4974503;28;20290;-78
2022/04/17 14:32:40;;;;;;;;;;;19.50;2.30;;;;;;4975614;28;20273;-76
2022/04/17 14:35:07;;;;;;;;;;;19.80;1.80;;;;;;4976310;28;19934;-77
2022/04/17 14:37:34;;;;;;;;;;;19.70;1.70;;;;;;4976616;28;19926;-76
2022/04/17 14:40:00;;;;;;;;;;;19.80;1.70;;;;;;4972844;28;19940;-76
2022/04/17 14:42:27;;;;;;;;;;;20.00;1.00;;;;;;4973170;28;20576;-76
2022/04/17 14:44:56;;;;;;;;;;;19.80;1.20;;;;;;4982690;28;20191;-78